sensor_id;sensor_type;location;lat;lon;timestamp;P1;durP1;ratioP1;P2;durP2;ratioP2
64061;SDS011;50308;47.438;-1.528;2023-07-16T00:00:03;16.98;;;6.88;;
64061;SDS011;50308;47.438;-1.528;2023-07-16T00:02:29;12.77;;;5.68;;
64061;SDS011;50308;47.438;-1.528;2023-07-16T00:04:55;18.80;;;5.88;;
64061;SDS011;50308;47.438;-1.528;2023-07-16T00:07:21;17.10;;;6.45;;
64061;SDS011;50308;47.438;-1.528;2023-07-16T00:09:47;13.10;;;6.15;;
64061;SDS011;50308;47.438;-1.528;2023-07-16T00:12:13;13.80;;;5.43;;
64061;SDS011;50308;47.438;-1.528;2023-07-16T00:14:38;10.05;;;5.47;;
64061;SDS011;50308;47.438;-1.528;2023-07-16T00:17:04;12.65;;;6.25;;
64061;SDS011;50308;47.438;-1.528;2023-07-16T00:19:30;13.35;;;5.18;;
64061;SDS011;50308;47.438;-1.528;2023-07-16T00:22:01;10.90;;;4.97;;
64061;SDS011;50308;47.438;-1.528;2023-07-16T00:24:32;12.02;;;5.28;;
64061;SDS011;50308;47.438;-1.528;2023-07-16T00:26:58;12.30;;;5.30;;
64061;SDS011;50308;47.438;-1.528;2023-07-16T00:29:24;13.80;;;5.07;;
64061;SDS011;50308;47.438;-1.528;2023-07-16T00:31:49;10.15;;;4.68;;
64061;SDS011;50308;47.438;-1.528;2023-07-16T00:34:15;13.50;;;5.55;;
64061;SDS011;50308;47.438;-1.528;2023-07-16T00:36:41;15.13;;;4.53;;
64061;SDS011;50308;47.438;-1.528;2023-07-16T00:39:07;14.82;;;4.80;;
64061;SDS011;50308;47.438;-1.528;2023-07-16T00:41:38;13.98;;;5.05;;
64061;SDS011;50308;47.438;-1.528;2023-07-16T00:44:05;12.93;;;5.28;;
64061;SDS011;50308;47.438;-1.528;2023-07-16T00:46:30;11.35;;;4.70;;
64061;SDS011;50308;47.438;-1.528;2023-07-16T00:48:56;13.48;;;5.38;;
64061;SDS011;50308;47.438;-1.528;2023-07-16T00:51:22;17.75;;;4.88;;
64061;SDS011;50308;47.438;-1.528;2023-07-16T00:53:50;15.13;;;5.35;;
64061;SDS011;50308;47.438;-1.528;2023-07-16T00:56:17;11.23;;;5.00;;
64061;SDS011;50308;47.438;-1.528;2023-07-16T00:58:43;14.32;;;5.68;;
64061;SDS011;50308;47.438;-1.528;2023-07-16T01:01:08;12.55;;;4.93;;
64061;SDS011;50308;47.438;-1.528;2023-07-16T01:03:34;19.63;;;6.28;;
64061;SDS011;50308;47.438;-1.528;2023-07-16T01:06:04;12.52;;;5.40;;
64061;SDS011;50308;47.438;-1.528;2023-07-16T01:08:41;14.75;;;4.70;;
64061;SDS011;50308;47.438;-1.528;2023-07-16T01:11:10;10.05;;;4.20;;
64061;SDS011;50308;47.438;-1.528;2023-07-16T01:13:37;13.88;;;4.55;;
64061;SDS011;50308;47.438;-1.528;2023-07-16T01:16:03;14.43;;;5.15;;
64061;SDS011;50308;47.438;-1.528;2023-07-16T01:18:29;17.58;;;5.18;;
64061;SDS011;50308;47.438;-1.528;2023-07-16T01:20:55;13.23;;;5.20;;
64061;SDS011;50308;47.438;-1.528;2023-07-16T01:31:27;14.63;;;5.53;;
64061;SDS011;50308;47.438;-1.528;2023-07-16T01:33:54;11.13;;;4.75;;
64061;SDS011;50308;47.438;-1.528;2023-07-16T01:36:21;11.13;;;4.75;;
64061;SDS011;50308;47.438;-1.528;2023-07-16T01:38:49;20.63;;;5.88;;
64061;SDS011;50308;47.438;-1.528;2023-07-16T01:41:15;19.00;;;5.32;;
64061;SDS011;50308;47.438;-1.528;2023-07-16T01:43:40;16.30;;;6.13;;
64061;SDS011;50308;47.438;-1.528;2023-07-16T01:46:06;14.65;;;5.15;;
64061;SDS011;50308;47.438;-1.528;2023-07-16T01:48:33;17.95;;;5.32;;
64061;SDS011;50308;47.438;-1.528;2023-07-16T01:51:01;15.93;;;5.07;;
64061;SDS011;50308;47.438;-1.528;2023-07-16T01:53:27;12.70;;;4.93;;
64061;SDS011;50308;47.438;-1.528;2023-07-16T01:55:53;16.05;;;5.20;;
64061;SDS011;50308;47.438;-1.528;2023-07-16T01:58:19;13.73;;;5.70;;
64061;SDS011;50308;47.438;-1.528;2023-07-16T02:00:44;12.10;;;5.03;;
64061;SDS011;50308;47.438;-1.528;2023-07-16T02:03:10;13.32;;;4.50;;
64061;SDS011;50308;47.438;-1.528;2023-07-16T02:05:36;13.38;;;4.88;;
64061;SDS011;50308;47.438;-1.528;2023-07-16T02:08:02;12.88;;;4.40;;
64061;SDS011;50308;47.438;-1.528;2023-07-16T02:10:28;21.00;;;5.53;;
64061;SDS011;50308;47.438;-1.528;2023-07-16T02:12:54;17.10;;;4.90;;
64061;SDS011;50308;47.438;-1.528;2023-07-16T02:15:19;11.95;;;4.60;;
64061;SDS011;50308;47.438;-1.528;2023-07-16T02:17:45;12.88;;;4.93;;
64061;SDS011;50308;47.438;-1.528;2023-07-16T02:20:11;14.77;;;4.78;;
64061;SDS011;50308;47.438;-1.528;2023-07-16T02:22:37;19.45;;;4.65;;
64061;SDS011;50308;47.438;-1.528;2023-07-16T02:25:03;13.90;;;5.32;;
64061;SDS011;50308;47.438;-1.528;2023-07-16T02:27:29;17.67;;;4.85;;
64061;SDS011;50308;47.438;-1.528;2023-07-16T02:29:55;13.55;;;5.07;;
64061;SDS011;50308;47.438;-1.528;2023-07-16T02:32:20;14.30;;;4.07;;
64061;SDS011;50308;47.438;-1.528;2023-07-16T02:34:46;10.40;;;4.00;;
64061;SDS011;50308;47.438;-1.528;2023-07-16T02:37:12;14.90;;;4.68;;
64061;SDS011;50308;47.438;-1.528;2023-07-16T02:39:38;15.88;;;4.78;;
64061;SDS011;50308;47.438;-1.528;2023-07-16T02:42:06;13.65;;;3.65;;
64061;SDS011;50308;47.438;-1.528;2023-07-16T02:44:31;15.75;;;3.90;;
64061;SDS011;50308;47.438;-1.528;2023-07-16T02:46:57;11.68;;;4.05;;
64061;SDS011;50308;47.438;-1.528;2023-07-16T02:49:23;12.48;;;4.07;;
64061;SDS011;50308;47.438;-1.528;2023-07-16T02:51:48;15.57;;;3.60;;
64061;SDS011;50308;47.438;-1.528;2023-07-16T02:54:14;10.75;;;3.38;;
64061;SDS011;50308;47.438;-1.528;2023-07-16T02:56:40;16.58;;;3.63;;
64061;SDS011;50308;47.438;-1.528;2023-07-16T02:59:05;14.60;;;3.60;;
64061;SDS011;50308;47.438;-1.528;2023-07-16T03:01:31;14.32;;;3.90;;
64061;SDS011;50308;47.438;-1.528;2023-07-16T03:03:57;10.52;;;3.50;;
64061;SDS011;50308;47.438;-1.528;2023-07-16T03:06:23;17.35;;;3.78;;
64061;SDS011;50308;47.438;-1.528;2023-07-16T03:08:49;17.77;;;4.38;;
64061;SDS011;50308;47.438;-1.528;2023-07-16T03:11:15;15.15;;;3.85;;
64061;SDS011;50308;47.438;-1.528;2023-07-16T03:13:40;12.25;;;3.20;;
64061;SDS011;50308;47.438;-1.528;2023-07-16T03:16:06;9.15;;;2.83;;
64061;SDS011;50308;47.438;-1.528;2023-07-16T03:18:32;11.93;;;3.33;;
64061;SDS011;50308;47.438;-1.528;2023-07-16T03:20:58;13.18;;;3.38;;
64061;SDS011;50308;47.438;-1.528;2023-07-16T03:23:24;11.13;;;3.97;;
64061;SDS011;50308;47.438;-1.528;2023-07-16T03:25:50;9.38;;;2.65;;
64061;SDS011;50308;47.438;-1.528;2023-07-16T03:28:16;14.63;;;3.75;;
64061;SDS011;50308;47.438;-1.528;2023-07-16T03:30:48;13.23;;;2.72;;
64061;SDS011;50308;47.438;-1.528;2023-07-16T03:33:15;9.43;;;2.83;;
64061;SDS011;50308;47.438;-1.528;2023-07-16T03:35:45;7.93;;;2.60;;
64061;SDS011;50308;47.438;-1.528;2023-07-16T03:38:11;11.75;;;3.30;;
64061;SDS011;50308;47.438;-1.528;2023-07-16T03:40:38;14.43;;;3.05;;
64061;SDS011;50308;47.438;-1.528;2023-07-16T03:43:04;15.75;;;3.65;;
64061;SDS011;50308;47.438;-1.528;2023-07-16T03:45:29;10.25;;;2.92;;
64061;SDS011;50308;47.438;-1.528;2023-07-16T03:47:55;12.57;;;3.58;;
64061;SDS011;50308;47.438;-1.528;2023-07-16T03:50:21;10.32;;;2.80;;
64061;SDS011;50308;47.438;-1.528;2023-07-16T03:52:47;15.38;;;3.65;;
64061;SDS011;50308;47.438;-1.528;2023-07-16T03:55:12;11.70;;;3.13;;
64061;SDS011;50308;47.438;-1.528;2023-07-16T03:57:38;13.43;;;3.40;;
64061;SDS011;50308;47.438;-1.528;2023-07-16T04:00:10;14.82;;;3.80;;
64061;SDS011;50308;47.438;-1.528;2023-07-16T04:02:59;14.10;;;3.40;;
64061;SDS011;50308;47.438;-1.528;2023-07-16T04:05:26;20.70;;;4.43;;
64061;SDS011;50308;47.438;-1.528;2023-07-16T04:07:51;13.60;;;3.13;;
64061;SDS011;50308;47.438;-1.528;2023-07-16T04:10:17;13.45;;;3.25;;
64061;SDS011;50308;47.438;-1.528;2023-07-16T04:12:43;15.43;;;4.03;;
64061;SDS011;50308;47.438;-1.528;2023-07-16T04:15:09;13.63;;;3.33;;
64061;SDS011;50308;47.438;-1.528;2023-07-16T04:17:35;12.02;;;3.33;;
64061;SDS011;50308;47.438;-1.528;2023-07-16T04:20:01;13.05;;;3.13;;
64061;SDS011;50308;47.438;-1.528;2023-07-16T04:22:28;10.85;;;3.08;;
64061;SDS011;50308;47.438;-1.528;2023-07-16T04:24:53;14.38;;;4.07;;
64061;SDS011;50308;47.438;-1.528;2023-07-16T04:27:19;16.33;;;4.75;;
64061;SDS011;50308;47.438;-1.528;2023-07-16T04:29:45;11.23;;;3.55;;
64061;SDS011;50308;47.438;-1.528;2023-07-16T04:32:10;13.57;;;3.13;;
64061;SDS011;50308;47.438;-1.528;2023-07-16T04:34:36;10.85;;;3.22;;
64061;SDS011;50308;47.438;-1.528;2023-07-16T04:37:02;11.98;;;2.80;;
64061;SDS011;50308;47.438;-1.528;2023-07-16T04:39:28;11.23;;;3.35;;
64061;SDS011;50308;47.438;-1.528;2023-07-16T04:41:53;11.90;;;3.65;;
64061;SDS011;50308;47.438;-1.528;2023-07-16T04:44:19;9.73;;;3.63;;
64061;SDS011;50308;47.438;-1.528;2023-07-16T04:46:45;14.48;;;3.50;;
64061;SDS011;50308;47.438;-1.528;2023-07-16T04:49:11;11.90;;;3.20;;
64061;SDS011;50308;47.438;-1.528;2023-07-16T04:51:36;15.65;;;4.22;;
64061;SDS011;50308;47.438;-1.528;2023-07-16T04:54:02;9.10;;;3.35;;
64061;SDS011;50308;47.438;-1.528;2023-07-16T04:56:28;10.70;;;3.40;;
64061;SDS011;50308;47.438;-1.528;2023-07-16T04:58:54;11.98;;;3.63;;
64061;SDS011;50308;47.438;-1.528;2023-07-16T05:01:19;7.85;;;3.50;;
64061;SDS011;50308;47.438;-1.528;2023-07-16T05:03:45;16.95;;;3.60;;
64061;SDS011;50308;47.438;-1.528;2023-07-16T05:06:11;12.40;;;3.95;;
64061;SDS011;50308;47.438;-1.528;2023-07-16T05:08:37;15.20;;;4.97;;
64061;SDS011;50308;47.438;-1.528;2023-07-16T05:11:02;13.25;;;4.85;;
64061;SDS011;50308;47.438;-1.528;2023-07-16T05:13:28;20.83;;;4.25;;
64061;SDS011;50308;47.438;-1.528;2023-07-16T05:15:54;14.00;;;4.50;;
64061;SDS011;50308;47.438;-1.528;2023-07-16T05:18:20;19.15;;;4.88;;
64061;SDS011;50308;47.438;-1.528;2023-07-16T05:20:47;16.67;;;4.75;;
64061;SDS011;50308;47.438;-1.528;2023-07-16T05:23:13;11.88;;;5.32;;
64061;SDS011;50308;47.438;-1.528;2023-07-16T05:25:45;18.30;;;4.53;;
64061;SDS011;50308;47.438;-1.528;2023-07-16T05:28:14;14.80;;;4.38;;
64061;SDS011;50308;47.438;-1.528;2023-07-16T05:30:41;19.25;;;6.00;;
64061;SDS011;50308;47.438;-1.528;2023-07-16T05:33:06;16.98;;;4.30;;
64061;SDS011;50308;47.438;-1.528;2023-07-16T05:35:32;18.08;;;5.22;;
64061;SDS011;50308;47.438;-1.528;2023-07-16T05:37:58;21.17;;;5.85;;
64061;SDS011;50308;47.438;-1.528;2023-07-16T05:40:23;16.90;;;5.55;;
64061;SDS011;50308;47.438;-1.528;2023-07-16T05:42:49;17.17;;;6.32;;
64061;SDS011;50308;47.438;-1.528;2023-07-16T05:45:15;13.40;;;5.18;;
64061;SDS011;50308;47.438;-1.528;2023-07-16T05:47:40;14.88;;;5.47;;
64061;SDS011;50308;47.438;-1.528;2023-07-16T05:50:06;16.58;;;5.88;;
64061;SDS011;50308;47.438;-1.528;2023-07-16T05:52:32;25.27;;;6.22;;
64061;SDS011;50308;47.438;-1.528;2023-07-16T05:54:58;20.73;;;6.88;;
64061;SDS011;50308;47.438;-1.528;2023-07-16T05:57:24;17.48;;;5.93;;
64061;SDS011;50308;47.438;-1.528;2023-07-16T05:59:49;19.00;;;5.85;;
64061;SDS011;50308;47.438;-1.528;2023-07-16T06:02:15;16.92;;;5.30;;
64061;SDS011;50308;47.438;-1.528;2023-07-16T06:04:41;17.77;;;6.57;;
64061;SDS011;50308;47.438;-1.528;2023-07-16T06:07:06;19.25;;;6.93;;
64061;SDS011;50308;47.438;-1.528;2023-07-16T06:09:32;20.35;;;7.03;;
64061;SDS011;50308;47.438;-1.528;2023-07-16T06:11:58;17.33;;;5.75;;
64061;SDS011;50308;47.438;-1.528;2023-07-16T06:14:24;19.77;;;7.75;;
64061;SDS011;50308;47.438;-1.528;2023-07-16T06:16:49;20.38;;;7.15;;
64061;SDS011;50308;47.438;-1.528;2023-07-16T06:19:15;18.35;;;7.68;;
64061;SDS011;50308;47.438;-1.528;2023-07-16T06:21:41;16.75;;;6.60;;
64061;SDS011;50308;47.438;-1.528;2023-07-16T06:24:06;22.88;;;8.63;;
64061;SDS011;50308;47.438;-1.528;2023-07-16T06:26:32;21.73;;;7.40;;
64061;SDS011;50308;47.438;-1.528;2023-07-16T06:28:58;21.00;;;6.72;;
64061;SDS011;50308;47.438;-1.528;2023-07-16T06:31:23;25.65;;;8.02;;
64061;SDS011;50308;47.438;-1.528;2023-07-16T06:33:49;19.60;;;6.82;;
64061;SDS011;50308;47.438;-1.528;2023-07-16T06:36:15;20.38;;;7.32;;
64061;SDS011;50308;47.438;-1.528;2023-07-16T06:38:41;24.45;;;7.97;;
64061;SDS011;50308;47.438;-1.528;2023-07-16T06:41:07;24.83;;;7.60;;
64061;SDS011;50308;47.438;-1.528;2023-07-16T06:43:33;25.73;;;7.97;;
64061;SDS011;50308;47.438;-1.528;2023-07-16T06:45:58;26.70;;;8.48;;
64061;SDS011;50308;47.438;-1.528;2023-07-16T06:48:24;26.20;;;7.70;;
64061;SDS011;50308;47.438;-1.528;2023-07-16T06:50:50;19.77;;;7.00;;
64061;SDS011;50308;47.438;-1.528;2023-07-16T06:53:16;24.23;;;7.93;;
64061;SDS011;50308;47.438;-1.528;2023-07-16T06:55:42;26.60;;;8.50;;
64061;SDS011;50308;47.438;-1.528;2023-07-16T06:58:10;23.33;;;7.18;;
64061;SDS011;50308;47.438;-1.528;2023-07-16T07:00:38;30.48;;;9.73;;
64061;SDS011;50308;47.438;-1.528;2023-07-16T07:03:04;22.45;;;8.07;;
64061;SDS011;50308;47.438;-1.528;2023-07-16T07:05:30;21.98;;;7.40;;
64061;SDS011;50308;47.438;-1.528;2023-07-16T07:07:55;25.63;;;8.73;;
64061;SDS011;50308;47.438;-1.528;2023-07-16T07:10:21;32.33;;;9.88;;
64061;SDS011;50308;47.438;-1.528;2023-07-16T07:12:47;28.92;;;7.50;;
64061;SDS011;50308;47.438;-1.528;2023-07-16T07:15:13;27.98;;;9.75;;
64061;SDS011;50308;47.438;-1.528;2023-07-16T07:17:39;27.08;;;9.43;;
64061;SDS011;50308;47.438;-1.528;2023-07-16T07:20:05;27.15;;;8.88;;
64061;SDS011;50308;47.438;-1.528;2023-07-16T07:22:31;30.10;;;9.02;;
64061;SDS011;50308;47.438;-1.528;2023-07-16T07:24:57;27.20;;;8.63;;
64061;SDS011;50308;47.438;-1.528;2023-07-16T07:27:23;34.67;;;10.20;;
64061;SDS011;50308;47.438;-1.528;2023-07-16T07:29:49;30.00;;;10.38;;
64061;SDS011;50308;47.438;-1.528;2023-07-16T07:32:18;39.05;;;10.35;;
64061;SDS011;50308;47.438;-1.528;2023-07-16T07:34:45;23.70;;;8.20;;
64061;SDS011;50308;47.438;-1.528;2023-07-16T07:37:11;38.33;;;11.07;;
64061;SDS011;50308;47.438;-1.528;2023-07-16T07:39:36;25.67;;;9.02;;
64061;SDS011;50308;47.438;-1.528;2023-07-16T07:42:02;33.75;;;10.00;;
64061;SDS011;50308;47.438;-1.528;2023-07-16T07:44:28;32.90;;;10.55;;
64061;SDS011;50308;47.438;-1.528;2023-07-16T07:46:54;33.78;;;10.35;;
64061;SDS011;50308;47.438;-1.528;2023-07-16T07:49:19;28.45;;;9.13;;
64061;SDS011;50308;47.438;-1.528;2023-07-16T07:51:45;24.63;;;7.63;;
64061;SDS011;50308;47.438;-1.528;2023-07-16T07:54:14;35.33;;;9.75;;
64061;SDS011;50308;47.438;-1.528;2023-07-16T07:56:40;28.25;;;9.02;;
64061;SDS011;50308;47.438;-1.528;2023-07-16T07:59:06;26.25;;;8.25;;
64061;SDS011;50308;47.438;-1.528;2023-07-16T08:01:31;24.20;;;8.60;;
64061;SDS011;50308;47.438;-1.528;2023-07-16T08:03:57;36.65;;;8.82;;
64061;SDS011;50308;47.438;-1.528;2023-07-16T08:06:23;28.35;;;8.25;;
64061;SDS011;50308;47.438;-1.528;2023-07-16T08:08:48;24.02;;;7.32;;
64061;SDS011;50308;47.438;-1.528;2023-07-16T08:11:14;25.73;;;8.00;;
64061;SDS011;50308;47.438;-1.528;2023-07-16T08:13:40;26.65;;;8.02;;
64061;SDS011;50308;47.438;-1.528;2023-07-16T08:16:05;28.80;;;9.00;;
64061;SDS011;50308;47.438;-1.528;2023-07-16T08:18:31;24.27;;;7.88;;
64061;SDS011;50308;47.438;-1.528;2023-07-16T08:20:57;22.08;;;6.38;;
64061;SDS011;50308;47.438;-1.528;2023-07-16T08:23:23;21.23;;;8.07;;
64061;SDS011;50308;47.438;-1.528;2023-07-16T08:25:49;30.67;;;7.80;;
64061;SDS011;50308;47.438;-1.528;2023-07-16T08:28:15;21.98;;;7.30;;
64061;SDS011;50308;47.438;-1.528;2023-07-16T08:30:41;23.58;;;7.00;;
64061;SDS011;50308;47.438;-1.528;2023-07-16T08:33:07;28.30;;;7.25;;
64061;SDS011;50308;47.438;-1.528;2023-07-16T08:35:32;21.95;;;5.57;;
64061;SDS011;50308;47.438;-1.528;2023-07-16T08:37:58;25.05;;;6.03;;
64061;SDS011;50308;47.438;-1.528;2023-07-16T08:40:23;20.98;;;5.50;;
64061;SDS011;50308;47.438;-1.528;2023-07-16T08:42:49;17.75;;;5.45;;
64061;SDS011;50308;47.438;-1.528;2023-07-16T08:45:15;24.63;;;5.85;;
64061;SDS011;50308;47.438;-1.528;2023-07-16T08:47:42;20.95;;;5.28;;
64061;SDS011;50308;47.438;-1.528;2023-07-16T08:50:08;20.45;;;4.47;;
64061;SDS011;50308;47.438;-1.528;2023-07-16T08:52:35;20.20;;;6.03;;
64061;SDS011;50308;47.438;-1.528;2023-07-16T08:55:01;25.00;;;5.72;;
64061;SDS011;50308;47.438;-1.528;2023-07-16T08:57:26;19.85;;;5.63;;
64061;SDS011;50308;47.438;-1.528;2023-07-16T08:59:53;19.23;;;5.53;;
64061;SDS011;50308;47.438;-1.528;2023-07-16T09:02:21;15.68;;;4.53;;
64061;SDS011;50308;47.438;-1.528;2023-07-16T09:04:48;11.15;;;4.88;;
64061;SDS011;50308;47.438;-1.528;2023-07-16T09:07:14;22.17;;;6.13;;
64061;SDS011;50308;47.438;-1.528;2023-07-16T09:09:40;17.83;;;5.50;;
64061;SDS011;50308;47.438;-1.528;2023-07-16T09:12:10;14.98;;;4.97;;
64061;SDS011;50308;47.438;-1.528;2023-07-16T09:14:38;14.80;;;5.30;;
64061;SDS011;50308;47.438;-1.528;2023-07-16T09:17:06;18.27;;;4.93;;
64061;SDS011;50308;47.438;-1.528;2023-07-16T09:19:32;20.30;;;5.53;;
64061;SDS011;50308;47.438;-1.528;2023-07-16T09:21:58;13.45;;;4.70;;
64061;SDS011;50308;47.438;-1.528;2023-07-16T09:24:24;13.43;;;5.18;;
64061;SDS011;50308;47.438;-1.528;2023-07-16T09:26:53;14.00;;;4.95;;
64061;SDS011;50308;47.438;-1.528;2023-07-16T09:29:24;19.48;;;4.85;;
64061;SDS011;50308;47.438;-1.528;2023-07-16T09:34:21;18.57;;;4.77;;
64061;SDS011;50308;47.438;-1.528;2023-07-16T09:36:48;16.58;;;4.82;;
64061;SDS011;50308;47.438;-1.528;2023-07-16T09:39:16;16.20;;;5.13;;
64061;SDS011;50308;47.438;-1.528;2023-07-16T09:41:42;16.55;;;4.57;;
64061;SDS011;50308;47.438;-1.528;2023-07-16T09:44:09;10.25;;;3.85;;
64061;SDS011;50308;47.438;-1.528;2023-07-16T09:46:36;16.48;;;5.50;;
64061;SDS011;50308;47.438;-1.528;2023-07-16T09:49:02;10.75;;;3.80;;
64061;SDS011;50308;47.438;-1.528;2023-07-16T09:51:29;10.77;;;4.28;;
64061;SDS011;50308;47.438;-1.528;2023-07-16T09:54:01;14.98;;;5.90;;
64061;SDS011;50308;47.438;-1.528;2023-07-16T09:56:29;13.00;;;4.28;;
64061;SDS011;50308;47.438;-1.528;2023-07-16T09:59:00;13.35;;;4.63;;
64061;SDS011;50308;47.438;-1.528;2023-07-16T10:01:28;12.68;;;4.40;;
64061;SDS011;50308;47.438;-1.528;2023-07-16T10:03:54;12.05;;;4.05;;
64061;SDS011;50308;47.438;-1.528;2023-07-16T10:06:20;12.32;;;4.10;;
64061;SDS011;50308;47.438;-1.528;2023-07-16T10:08:49;12.70;;;5.45;;
64061;SDS011;50308;47.438;-1.528;2023-07-16T10:11:16;16.48;;;4.18;;
64061;SDS011;50308;47.438;-1.528;2023-07-16T10:13:43;14.55;;;4.30;;
64061;SDS011;50308;47.438;-1.528;2023-07-16T10:18:52;13.68;;;4.18;;
64061;SDS011;50308;47.438;-1.528;2023-07-16T10:21:24;13.57;;;3.75;;
64061;SDS011;50308;47.438;-1.528;2023-07-16T10:23:57;13.07;;;4.55;;
64061;SDS011;50308;47.438;-1.528;2023-07-16T10:26:27;12.23;;;3.83;;
64061;SDS011;50308;47.438;-1.528;2023-07-16T10:28:56;14.23;;;4.70;;
64061;SDS011;50308;47.438;-1.528;2023-07-16T10:31:23;12.23;;;4.40;;
64061;SDS011;50308;47.438;-1.528;2023-07-16T10:33:58;15.32;;;4.85;;
64061;SDS011;50308;47.438;-1.528;2023-07-16T10:36:29;15.50;;;5.13;;
64061;SDS011;50308;47.438;-1.528;2023-07-16T10:39:01;15.35;;;4.53;;
64061;SDS011;50308;47.438;-1.528;2023-07-16T10:41:30;13.43;;;3.97;;
64061;SDS011;50308;47.438;-1.528;2023-07-16T10:43:57;15.35;;;4.00;;
64061;SDS011;50308;47.438;-1.528;2023-07-16T10:46:24;11.60;;;3.28;;
64061;SDS011;50308;47.438;-1.528;2023-07-16T10:48:49;13.68;;;4.70;;
64061;SDS011;50308;47.438;-1.528;2023-07-16T10:51:15;10.82;;;4.18;;
64061;SDS011;50308;47.438;-1.528;2023-07-16T10:53:42;11.07;;;3.17;;
64061;SDS011;50308;47.438;-1.528;2023-07-16T10:56:08;8.90;;;3.17;;
64061;SDS011;50308;47.438;-1.528;2023-07-16T10:58:36;8.20;;;3.67;;
64061;SDS011;50308;47.438;-1.528;2023-07-16T11:01:02;15.32;;;3.65;;
64061;SDS011;50308;47.438;-1.528;2023-07-16T11:03:28;10.65;;;3.70;;
64061;SDS011;50308;47.438;-1.528;2023-07-16T11:05:54;11.98;;;4.18;;
64061;SDS011;50308;47.438;-1.528;2023-07-16T11:08:23;11.15;;;4.03;;
64061;SDS011;50308;47.438;-1.528;2023-07-16T11:10:56;7.70;;;3.15;;
64061;SDS011;50308;47.438;-1.528;2023-07-16T11:13:29;8.57;;;2.97;;
64061;SDS011;50308;47.438;-1.528;2023-07-16T11:16:06;6.90;;;3.88;;
64061;SDS011;50308;47.438;-1.528;2023-07-16T11:18:33;8.25;;;3.92;;
64061;SDS011;50308;47.438;-1.528;2023-07-16T11:20:58;9.25;;;3.95;;
64061;SDS011;50308;47.438;-1.528;2023-07-16T11:23:24;10.35;;;3.45;;
64061;SDS011;50308;47.438;-1.528;2023-07-16T11:25:52;12.10;;;3.92;;
64061;SDS011;50308;47.438;-1.528;2023-07-16T11:28:18;8.32;;;3.67;;
64061;SDS011;50308;47.438;-1.528;2023-07-16T11:30:44;10.73;;;3.80;;
64061;SDS011;50308;47.438;-1.528;2023-07-16T11:33:10;11.98;;;3.85;;
64061;SDS011;50308;47.438;-1.528;2023-07-16T11:35:37;14.00;;;4.07;;
64061;SDS011;50308;47.438;-1.528;2023-07-16T11:38:06;9.23;;;3.42;;
64061;SDS011;50308;47.438;-1.528;2023-07-16T11:40:35;6.55;;;3.22;;
64061;SDS011;50308;47.438;-1.528;2023-07-16T11:43:08;12.55;;;3.88;;
64061;SDS011;50308;47.438;-1.528;2023-07-16T11:45:37;12.32;;;4.07;;
64061;SDS011;50308;47.438;-1.528;2023-07-16T11:48:04;9.02;;;3.60;;
64061;SDS011;50308;47.438;-1.528;2023-07-16T11:50:30;10.43;;;3.42;;
64061;SDS011;50308;47.438;-1.528;2023-07-16T11:53:00;13.90;;;4.47;;
64061;SDS011;50308;47.438;-1.528;2023-07-16T11:55:26;7.93;;;3.17;;
64061;SDS011;50308;47.438;-1.528;2023-07-16T11:57:52;9.18;;;3.45;;
64061;SDS011;50308;47.438;-1.528;2023-07-16T12:00:18;7.18;;;3.35;;
64061;SDS011;50308;47.438;-1.528;2023-07-16T12:02:44;9.80;;;4.03;;
64061;SDS011;50308;47.438;-1.528;2023-07-16T12:05:16;12.07;;;3.88;;
64061;SDS011;50308;47.438;-1.528;2023-07-16T12:07:45;11.85;;;4.78;;
64061;SDS011;50308;47.438;-1.528;2023-07-16T12:10:11;9.20;;;3.50;;
64061;SDS011;50308;47.438;-1.528;2023-07-16T12:12:36;8.35;;;3.75;;
64061;SDS011;50308;47.438;-1.528;2023-07-16T12:15:06;10.02;;;3.90;;
64061;SDS011;50308;47.438;-1.528;2023-07-16T12:17:33;8.88;;;3.58;;
64061;SDS011;50308;47.438;-1.528;2023-07-16T12:19:59;11.25;;;4.53;;
64061;SDS011;50308;47.438;-1.528;2023-07-16T12:22:25;8.05;;;3.45;;
64061;SDS011;50308;47.438;-1.528;2023-07-16T12:24:52;10.15;;;3.90;;
64061;SDS011;50308;47.438;-1.528;2023-07-16T12:27:17;10.20;;;3.30;;
64061;SDS011;50308;47.438;-1.528;2023-07-16T12:29:43;6.28;;;2.85;;
64061;SDS011;50308;47.438;-1.528;2023-07-16T12:32:09;9.82;;;3.83;;
64061;SDS011;50308;47.438;-1.528;2023-07-16T12:34:35;7.47;;;3.30;;
64061;SDS011;50308;47.438;-1.528;2023-07-16T12:37:02;12.23;;;3.53;;
64061;SDS011;50308;47.438;-1.528;2023-07-16T12:39:28;8.73;;;3.33;;
64061;SDS011;50308;47.438;-1.528;2023-07-16T12:41:53;8.68;;;3.50;;
64061;SDS011;50308;47.438;-1.528;2023-07-16T12:44:19;10.27;;;2.97;;
64061;SDS011;50308;47.438;-1.528;2023-07-16T12:46:45;11.45;;;3.20;;
64061;SDS011;50308;47.438;-1.528;2023-07-16T12:49:11;8.80;;;4.05;;
64061;SDS011;50308;47.438;-1.528;2023-07-16T12:51:36;11.35;;;3.25;;
64061;SDS011;50308;47.438;-1.528;2023-07-16T12:54:02;9.38;;;2.95;;
64061;SDS011;50308;47.438;-1.528;2023-07-16T12:56:28;8.90;;;3.33;;
64061;SDS011;50308;47.438;-1.528;2023-07-16T12:58:53;9.32;;;3.20;;
64061;SDS011;50308;47.438;-1.528;2023-07-16T13:01:19;8.38;;;2.80;;
64061;SDS011;50308;47.438;-1.528;2023-07-16T13:03:45;7.82;;;2.88;;
64061;SDS011;50308;47.438;-1.528;2023-07-16T13:06:10;8.63;;;3.17;;
64061;SDS011;50308;47.438;-1.528;2023-07-16T13:08:36;6.15;;;2.67;;
64061;SDS011;50308;47.438;-1.528;2023-07-16T13:11:02;7.22;;;2.90;;
64061;SDS011;50308;47.438;-1.528;2023-07-16T13:13:27;5.55;;;2.30;;
64061;SDS011;50308;47.438;-1.528;2023-07-16T13:15:54;5.38;;;1.98;;
64061;SDS011;50308;47.438;-1.528;2023-07-16T13:18:20;7.30;;;2.92;;
64061;SDS011;50308;47.438;-1.528;2023-07-16T13:20:46;5.47;;;2.85;;
64061;SDS011;50308;47.438;-1.528;2023-07-16T13:23:12;7.90;;;2.10;;
64061;SDS011;50308;47.438;-1.528;2023-07-16T13:25:38;8.23;;;3.05;;
64061;SDS011;50308;47.438;-1.528;2023-07-16T13:28:06;5.22;;;2.60;;
64061;SDS011;50308;47.438;-1.528;2023-07-16T13:30:33;7.70;;;3.85;;
64061;SDS011;50308;47.438;-1.528;2023-07-16T13:32:59;5.13;;;2.25;;
64061;SDS011;50308;47.438;-1.528;2023-07-16T13:35:26;8.05;;;2.47;;
64061;SDS011;50308;47.438;-1.528;2023-07-16T13:37:51;11.00;;;2.65;;
64061;SDS011;50308;47.438;-1.528;2023-07-16T13:40:17;6.57;;;2.92;;
64061;SDS011;50308;47.438;-1.528;2023-07-16T13:42:46;9.98;;;2.65;;
64061;SDS011;50308;47.438;-1.528;2023-07-16T13:45:12;9.00;;;2.70;;
64061;SDS011;50308;47.438;-1.528;2023-07-16T13:47:38;8.30;;;3.35;;
64061;SDS011;50308;47.438;-1.528;2023-07-16T13:50:04;6.28;;;2.97;;
64061;SDS011;50308;47.438;-1.528;2023-07-16T13:52:30;6.03;;;2.65;;
64061;SDS011;50308;47.438;-1.528;2023-07-16T13:54:56;6.88;;;2.42;;
64061;SDS011;50308;47.438;-1.528;2023-07-16T13:57:21;7.07;;;2.47;;
64061;SDS011;50308;47.438;-1.528;2023-07-16T13:59:47;5.68;;;2.30;;
64061;SDS011;50308;47.438;-1.528;2023-07-16T14:02:13;5.88;;;2.28;;
64061;SDS011;50308;47.438;-1.528;2023-07-16T14:04:38;5.22;;;1.80;;
64061;SDS011;50308;47.438;-1.528;2023-07-16T14:07:04;3.88;;;1.73;;
64061;SDS011;50308;47.438;-1.528;2023-07-16T14:09:30;8.95;;;2.47;;
64061;SDS011;50308;47.438;-1.528;2023-07-16T14:11:55;5.07;;;1.88;;
64061;SDS011;50308;47.438;-1.528;2023-07-16T14:14:21;3.50;;;1.77;;
64061;SDS011;50308;47.438;-1.528;2023-07-16T14:16:47;4.10;;;1.90;;
64061;SDS011;50308;47.438;-1.528;2023-07-16T14:19:13;5.03;;;1.95;;
64061;SDS011;50308;47.438;-1.528;2023-07-16T14:21:39;4.82;;;1.77;;
64061;SDS011;50308;47.438;-1.528;2023-07-16T14:24:05;7.40;;;1.65;;
64061;SDS011;50308;47.438;-1.528;2023-07-16T14:26:32;5.72;;;2.13;;
64061;SDS011;50308;47.438;-1.528;2023-07-16T14:28:58;5.13;;;1.50;;
64061;SDS011;50308;47.438;-1.528;2023-07-16T14:31:24;5.90;;;1.55;;